sensor_id;sensor_type;location;lat;lon;timestamp;P1;durP1;ratioP1;P2;durP2;ratioP2
38783;SDS011;24531;45.502;12.238;2023-11-19T00:02:10;39.97;;;25.50;;
38783;SDS011;24531;45.502;12.238;2023-11-19T00:04:38;36.58;;;24.15;;
38783;SDS011;24531;45.502;12.238;2023-11-19T00:07:04;36.35;;;24.08;;
38783;SDS011;24531;45.502;12.238;2023-11-19T00:09:32;41.90;;;25.00;;
38783;SDS011;24531;45.502;12.238;2023-11-19T00:11:58;31.73;;;22.85;;
38783;SDS011;24531;45.502;12.238;2023-11-19T00:14:25;35.53;;;23.90;;
38783;SDS011;24531;45.502;12.238;2023-11-19T00:16:51;34.50;;;22.23;;
38783;SDS011;24531;45.502;12.238;2023-11-19T00:19:18;36.90;;;23.23;;
38783;SDS011;24531;45.502;12.238;2023-11-19T00:21:44;35.67;;;23.00;;
38783;SDS011;24531;45.502;12.238;2023-11-19T00:24:10;36.65;;;24.25;;
38783;SDS011;24531;45.502;12.238;2023-11-19T00:26:37;37.97;;;24.00;;
38783;SDS011;24531;45.502;12.238;2023-11-19T00:29:03;30.20;;;22.88;;
38783;SDS011;24531;45.502;12.238;2023-11-19T00:31:29;33.97;;;22.60;;
38783;SDS011;24531;45.502;12.238;2023-11-19T00:33:55;35.08;;;22.83;;
38783;SDS011;24531;45.502;12.238;2023-11-19T00:36:20;32.58;;;21.75;;
38783;SDS011;24531;45.502;12.238;2023-11-19T00:38:48;36.60;;;23.05;;
38783;SDS011;24531;45.502;12.238;2023-11-19T00:41:15;37.38;;;23.88;;
38783;SDS011;24531;45.502;12.238;2023-11-19T00:43:42;30.13;;;22.88;;
38783;SDS011;24531;45.502;12.238;2023-11-19T00:46:07;37.10;;;23.00;;
38783;SDS011;24531;45.502;12.238;2023-11-19T00:48:35;35.17;;;22.08;;
38783;SDS011;24531;45.502;12.238;2023-11-19T00:51:01;33.90;;;23.10;;
38783;SDS011;24531;45.502;12.238;2023-11-19T00:53:27;33.47;;;22.70;;
38783;SDS011;24531;45.502;12.238;2023-11-19T00:55:53;36.70;;;22.00;;
38783;SDS011;24531;45.502;12.238;2023-11-19T00:58:18;35.72;;;22.40;;
38783;SDS011;24531;45.502;12.238;2023-11-19T01:00:44;31.65;;;23.00;;
38783;SDS011;24531;45.502;12.238;2023-11-19T01:03:10;29.63;;;22.00;;
38783;SDS011;24531;45.502;12.238;2023-11-19T01:05:36;31.55;;;20.73;;
38783;SDS011;24531;45.502;12.238;2023-11-19T01:08:02;32.30;;;21.35;;
38783;SDS011;24531;45.502;12.238;2023-11-19T01:10:29;31.65;;;22.55;;
38783;SDS011;24531;45.502;12.238;2023-11-19T01:12:55;32.10;;;22.33;;
38783;SDS011;24531;45.502;12.238;2023-11-19T01:15:21;31.52;;;20.88;;
38783;SDS011;24531;45.502;12.238;2023-11-19T01:17:47;31.65;;;21.65;;
38783;SDS011;24531;45.502;12.238;2023-11-19T01:20:13;30.27;;;20.80;;
38783;SDS011;24531;45.502;12.238;2023-11-19T01:22:39;26.88;;;19.58;;
38783;SDS011;24531;45.502;12.238;2023-11-19T01:25:05;29.77;;;21.33;;
38783;SDS011;24531;45.502;12.238;2023-11-19T01:27:32;28.23;;;19.52;;
38783;SDS011;24531;45.502;12.238;2023-11-19T01:29:59;29.23;;;20.88;;
38783;SDS011;24531;45.502;12.238;2023-11-19T01:32:29;31.52;;;20.33;;
38783;SDS011;24531;45.502;12.238;2023-11-19T01:34:55;29.10;;;20.05;;
38783;SDS011;24531;45.502;12.238;2023-11-19T01:37:20;26.85;;;19.92;;
38783;SDS011;24531;45.502;12.238;2023-11-19T01:39:46;31.15;;;19.98;;
38783;SDS011;24531;45.502;12.238;2023-11-19T01:42:11;26.58;;;18.33;;
38783;SDS011;24531;45.502;12.238;2023-11-19T01:44:37;28.60;;;18.23;;
38783;SDS011;24531;45.502;12.238;2023-11-19T01:47:03;24.38;;;17.77;;
38783;SDS011;24531;45.502;12.238;2023-11-19T01:49:29;27.88;;;19.08;;
38783;SDS011;24531;45.502;12.238;2023-11-19T01:51:57;28.35;;;17.92;;
38783;SDS011;24531;45.502;12.238;2023-11-19T01:54:22;26.13;;;17.90;;
38783;SDS011;24531;45.502;12.238;2023-11-19T01:56:48;30.67;;;18.27;;
38783;SDS011;24531;45.502;12.238;2023-11-19T01:59:14;30.58;;;20.02;;
38783;SDS011;24531;45.502;12.238;2023-11-19T02:01:41;26.98;;;18.80;;
38783;SDS011;24531;45.502;12.238;2023-11-19T02:04:07;22.00;;;16.77;;
38783;SDS011;24531;45.502;12.238;2023-11-19T02:06:34;26.30;;;17.90;;
38783;SDS011;24531;45.502;12.238;2023-11-19T02:09:02;25.45;;;18.67;;
38783;SDS011;24531;45.502;12.238;2023-11-19T02:11:32;26.10;;;17.83;;
38783;SDS011;24531;45.502;12.238;2023-11-19T02:13:59;26.08;;;19.13;;
38783;SDS011;24531;45.502;12.238;2023-11-19T02:16:25;26.75;;;18.15;;
38783;SDS011;24531;45.502;12.238;2023-11-19T02:18:51;28.25;;;19.33;;
38783;SDS011;24531;45.502;12.238;2023-11-19T02:21:16;25.48;;;18.27;;
38783;SDS011;24531;45.502;12.238;2023-11-19T02:23:43;27.13;;;18.73;;
38783;SDS011;24531;45.502;12.238;2023-11-19T02:26:26;30.45;;;19.80;;
38783;SDS011;24531;45.502;12.238;2023-11-19T02:28:59;30.23;;;20.20;;
38783;SDS011;24531;45.502;12.238;2023-11-19T02:31:25;32.60;;;21.08;;
38783;SDS011;24531;45.502;12.238;2023-11-19T02:33:52;31.13;;;20.88;;
38783;SDS011;24531;45.502;12.238;2023-11-19T02:36:18;32.10;;;20.23;;
38783;SDS011;24531;45.502;12.238;2023-11-19T02:38:43;28.88;;;19.38;;
38783;SDS011;24531;45.502;12.238;2023-11-19T02:41:09;34.40;;;20.15;;
38783;SDS011;24531;45.502;12.238;2023-11-19T02:43:35;29.60;;;18.90;;
38783;SDS011;24531;45.502;12.238;2023-11-19T02:46:02;33.30;;;19.23;;
38783;SDS011;24531;45.502;12.238;2023-11-19T02:48:32;28.38;;;18.83;;
38783;SDS011;24531;45.502;12.238;2023-11-19T02:51:00;27.52;;;18.88;;
38783;SDS011;24531;45.502;12.238;2023-11-19T02:53:28;31.08;;;18.67;;
38783;SDS011;24531;45.502;12.238;2023-11-19T02:55:56;26.48;;;18.30;;
38783;SDS011;24531;45.502;12.238;2023-11-19T02:58:36;32.70;;;21.08;;
38783;SDS011;24531;45.502;12.238;2023-11-19T03:01:04;31.52;;;19.25;;
38783;SDS011;24531;45.502;12.238;2023-11-19T03:03:34;26.98;;;18.50;;
38783;SDS011;24531;45.502;12.238;2023-11-19T03:06:04;27.15;;;17.90;;
38783;SDS011;24531;45.502;12.238;2023-11-19T03:08:31;32.17;;;20.38;;
38783;SDS011;24531;45.502;12.238;2023-11-19T03:10:57;24.90;;;17.80;;
38783;SDS011;24531;45.502;12.238;2023-11-19T03:13:24;25.38;;;18.20;;
38783;SDS011;24531;45.502;12.238;2023-11-19T03:15:49;25.05;;;17.73;;
38783;SDS011;24531;45.502;12.238;2023-11-19T03:18:16;26.67;;;18.02;;
38783;SDS011;24531;45.502;12.238;2023-11-19T03:20:42;24.65;;;16.77;;
38783;SDS011;24531;45.502;12.238;2023-11-19T03:23:07;23.40;;;17.00;;
38783;SDS011;24531;45.502;12.238;2023-11-19T03:25:33;24.50;;;17.02;;
38783;SDS011;24531;45.502;12.238;2023-11-19T03:27:59;29.85;;;17.75;;
38783;SDS011;24531;45.502;12.238;2023-11-19T03:30:26;24.08;;;16.95;;
38783;SDS011;24531;45.502;12.238;2023-11-19T03:32:53;28.10;;;17.45;;
38783;SDS011;24531;45.502;12.238;2023-11-19T03:35:19;26.98;;;18.25;;
38783;SDS011;24531;45.502;12.238;2023-11-19T03:37:45;25.83;;;16.48;;
38783;SDS011;24531;45.502;12.238;2023-11-19T03:40:11;24.73;;;16.85;;
38783;SDS011;24531;45.502;12.238;2023-11-19T03:42:37;25.48;;;16.92;;
38783;SDS011;24531;45.502;12.238;2023-11-19T03:45:05;24.13;;;16.38;;
38783;SDS011;24531;45.502;12.238;2023-11-19T03:47:33;36.38;;;23.38;;
38783;SDS011;24531;45.502;12.238;2023-11-19T03:49:59;39.08;;;23.00;;
38783;SDS011;24531;45.502;12.238;2023-11-19T03:52:25;40.28;;;25.20;;
38783;SDS011;24531;45.502;12.238;2023-11-19T03:54:52;52.47;;;27.65;;
38783;SDS011;24531;45.502;12.238;2023-11-19T03:57:18;39.45;;;23.60;;
38783;SDS011;24531;45.502;12.238;2023-11-19T03:59:44;32.25;;;21.17;;
38783;SDS011;24531;45.502;12.238;2023-11-19T04:02:09;29.17;;;18.80;;
38783;SDS011;24531;45.502;12.238;2023-11-19T04:04:35;31.17;;;19.50;;
38783;SDS011;24531;45.502;12.238;2023-11-19T04:07:02;27.17;;;17.88;;
38783;SDS011;24531;45.502;12.238;2023-11-19T04:09:28;25.15;;;16.95;;
38783;SDS011;24531;45.502;12.238;2023-11-19T04:11:54;24.33;;;16.83;;
38783;SDS011;24531;45.502;12.238;2023-11-19T04:14:20;26.38;;;17.60;;
38783;SDS011;24531;45.502;12.238;2023-11-19T04:16:46;23.85;;;16.73;;
38783;SDS011;24531;45.502;12.238;2023-11-19T04:19:12;23.70;;;17.42;;
38783;SDS011;24531;45.502;12.238;2023-11-19T04:21:39;24.38;;;16.88;;
38783;SDS011;24531;45.502;12.238;2023-11-19T04:24:06;22.13;;;16.42;;
38783;SDS011;24531;45.502;12.238;2023-11-19T04:26:33;23.30;;;16.30;;
38783;SDS011;24531;45.502;12.238;2023-11-19T04:28:59;26.45;;;17.45;;
38783;SDS011;24531;45.502;12.238;2023-11-19T04:31:28;22.88;;;16.52;;
38783;SDS011;24531;45.502;12.238;2023-11-19T04:33:56;23.25;;;16.30;;
38783;SDS011;24531;45.502;12.238;2023-11-19T04:36:22;25.48;;;16.23;;
38783;SDS011;24531;45.502;12.238;2023-11-19T04:38:49;28.98;;;17.48;;
38783;SDS011;24531;45.502;12.238;2023-11-19T04:41:15;23.90;;;16.77;;
38783;SDS011;24531;45.502;12.238;2023-11-19T04:43:41;26.20;;;17.00;;
38783;SDS011;24531;45.502;12.238;2023-11-19T04:46:06;24.13;;;16.77;;
38783;SDS011;24531;45.502;12.238;2023-11-19T04:48:34;26.15;;;16.58;;
38783;SDS011;24531;45.502;12.238;2023-11-19T04:50:59;27.02;;;17.45;;
38783;SDS011;24531;45.502;12.238;2023-11-19T04:53:25;24.75;;;16.42;;
38783;SDS011;24531;45.502;12.238;2023-11-19T04:55:51;26.35;;;17.13;;
38783;SDS011;24531;45.502;12.238;2023-11-19T04:58:17;26.65;;;17.17;;
38783;SDS011;24531;45.502;12.238;2023-11-19T05:00:42;25.42;;;17.73;;
38783;SDS011;24531;45.502;12.238;2023-11-19T05:03:08;24.38;;;16.70;;
38783;SDS011;24531;45.502;12.238;2023-11-19T05:05:33;25.45;;;17.73;;
38783;SDS011;24531;45.502;12.238;2023-11-19T05:07:59;25.33;;;17.05;;
38783;SDS011;24531;45.502;12.238;2023-11-19T05:10:24;24.73;;;17.40;;
38783;SDS011;24531;45.502;12.238;2023-11-19T05:12:50;26.50;;;18.08;;
38783;SDS011;24531;45.502;12.238;2023-11-19T05:15:16;26.70;;;17.65;;
38783;SDS011;24531;45.502;12.238;2023-11-19T05:17:42;27.73;;;18.67;;
38783;SDS011;24531;45.502;12.238;2023-11-19T05:20:08;33.13;;;21.48;;
38783;SDS011;24531;45.502;12.238;2023-11-19T05:22:39;30.15;;;19.05;;
38783;SDS011;24531;45.502;12.238;2023-11-19T05:25:05;28.27;;;19.08;;
38783;SDS011;24531;45.502;12.238;2023-11-19T05:27:31;27.88;;;20.10;;
38783;SDS011;24531;45.502;12.238;2023-11-19T05:29:57;25.90;;;17.83;;
38783;SDS011;24531;45.502;12.238;2023-11-19T05:32:22;26.05;;;17.77;;
38783;SDS011;24531;45.502;12.238;2023-11-19T05:34:48;26.92;;;18.23;;
38783;SDS011;24531;45.502;12.238;2023-11-19T05:37:14;23.48;;;17.83;;
38783;SDS011;24531;45.502;12.238;2023-11-19T05:39:39;26.60;;;17.63;;
38783;SDS011;24531;45.502;12.238;2023-11-19T05:42:05;27.77;;;17.95;;
38783;SDS011;24531;45.502;12.238;2023-11-19T05:44:30;26.05;;;18.15;;
38783;SDS011;24531;45.502;12.238;2023-11-19T05:46:56;30.70;;;20.55;;
38783;SDS011;24531;45.502;12.238;2023-11-19T05:49:21;25.55;;;17.42;;
38783;SDS011;24531;45.502;12.238;2023-11-19T05:51:47;25.35;;;17.83;;
38783;SDS011;24531;45.502;12.238;2023-11-19T05:54:13;26.63;;;19.20;;
38783;SDS011;24531;45.502;12.238;2023-11-19T05:56:38;30.52;;;18.15;;
38783;SDS011;24531;45.502;12.238;2023-11-19T05:59:04;27.60;;;18.25;;
38783;SDS011;24531;45.502;12.238;2023-11-19T06:01:35;26.33;;;18.02;;
38783;SDS011;24531;45.502;12.238;2023-11-19T06:04:01;29.40;;;17.85;;
38783;SDS011;24531;45.502;12.238;2023-11-19T06:06:27;27.30;;;18.67;;
38783;SDS011;24531;45.502;12.238;2023-11-19T06:08:53;27.45;;;18.13;;
38783;SDS011;24531;45.502;12.238;2023-11-19T06:11:20;27.02;;;18.38;;
38783;SDS011;24531;45.502;12.238;2023-11-19T06:13:45;26.40;;;19.23;;
38783;SDS011;24531;45.502;12.238;2023-11-19T06:16:13;29.35;;;18.83;;
38783;SDS011;24531;45.502;12.238;2023-11-19T06:18:39;25.48;;;18.67;;
38783;SDS011;24531;45.502;12.238;2023-11-19T06:21:06;25.60;;;17.50;;
38783;SDS011;24531;45.502;12.238;2023-11-19T06:23:32;29.98;;;19.02;;
38783;SDS011;24531;45.502;12.238;2023-11-19T06:25:57;28.48;;;18.17;;
38783;SDS011;24531;45.502;12.238;2023-11-19T06:28:23;29.40;;;19.65;;
38783;SDS011;24531;45.502;12.238;2023-11-19T06:30:49;26.75;;;18.08;;
38783;SDS011;24531;45.502;12.238;2023-11-19T06:33:15;26.55;;;19.02;;
38783;SDS011;24531;45.502;12.238;2023-11-19T06:35:41;30.33;;;18.90;;
38783;SDS011;24531;45.502;12.238;2023-11-19T06:38:07;27.98;;;19.60;;
38783;SDS011;24531;45.502;12.238;2023-11-19T06:40:32;33.20;;;20.08;;
38783;SDS011;24531;45.502;12.238;2023-11-19T06:43:00;27.10;;;19.33;;
38783;SDS011;24531;45.502;12.238;2023-11-19T06:45:25;29.17;;;19.23;;
38783;SDS011;24531;45.502;12.238;2023-11-19T06:47:51;29.60;;;19.33;;
38783;SDS011;24531;45.502;12.238;2023-11-19T06:50:17;28.85;;;18.75;;
38783;SDS011;24531;45.502;12.238;2023-11-19T06:52:44;30.67;;;18.90;;
38783;SDS011;24531;45.502;12.238;2023-11-19T06:55:10;30.90;;;18.85;;
38783;SDS011;24531;45.502;12.238;2023-11-19T06:57:36;24.92;;;18.38;;
38783;SDS011;24531;45.502;12.238;2023-11-19T07:00:02;27.30;;;18.45;;
38783;SDS011;24531;45.502;12.238;2023-11-19T07:02:30;26.13;;;17.63;;
38783;SDS011;24531;45.502;12.238;2023-11-19T07:04:56;27.63;;;19.25;;
38783;SDS011;24531;45.502;12.238;2023-11-19T07:07:22;27.45;;;18.98;;
38783;SDS011;24531;45.502;12.238;2023-11-19T07:09:47;27.17;;;18.63;;
38783;SDS011;24531;45.502;12.238;2023-11-19T07:12:13;29.77;;;19.05;;
38783;SDS011;24531;45.502;12.238;2023-11-19T07:14:39;31.77;;;17.95;;
38783;SDS011;24531;45.502;12.238;2023-11-19T07:17:05;24.85;;;18.00;;
38783;SDS011;24531;45.502;12.238;2023-11-19T07:19:31;26.75;;;17.58;;
38783;SDS011;24531;45.502;12.238;2023-11-19T07:21:56;27.60;;;18.33;;
38783;SDS011;24531;45.502;12.238;2023-11-19T07:24:22;26.52;;;18.13;;
38783;SDS011;24531;45.502;12.238;2023-11-19T07:26:48;27.65;;;17.65;;
38783;SDS011;24531;45.502;12.238;2023-11-19T07:29:16;27.25;;;18.40;;
38783;SDS011;24531;45.502;12.238;2023-11-19T07:31:42;28.50;;;18.40;;
38783;SDS011;24531;45.502;12.238;2023-11-19T07:34:09;29.20;;;18.45;;
38783;SDS011;24531;45.502;12.238;2023-11-19T07:36:36;27.30;;;18.98;;
38783;SDS011;24531;45.502;12.238;2023-11-19T07:39:02;25.67;;;18.17;;
38783;SDS011;24531;45.502;12.238;2023-11-19T07:41:29;25.58;;;17.90;;
38783;SDS011;24531;45.502;12.238;2023-11-19T07:43:58;26.42;;;17.67;;
38783;SDS011;24531;45.502;12.238;2023-11-19T07:46:24;27.17;;;18.38;;
38783;SDS011;24531;45.502;12.238;2023-11-19T07:48:50;25.40;;;16.88;;
38783;SDS011;24531;45.502;12.238;2023-11-19T07:51:15;24.98;;;16.92;;
38783;SDS011;24531;45.502;12.238;2023-11-19T07:53:41;33.65;;;17.55;;
38783;SDS011;24531;45.502;12.238;2023-11-19T07:56:07;25.52;;;17.02;;
38783;SDS011;24531;45.502;12.238;2023-11-19T07:58:33;24.35;;;15.85;;
38783;SDS011;24531;45.502;12.238;2023-11-19T08:00:59;29.63;;;16.70;;
38783;SDS011;24531;45.502;12.238;2023-11-19T08:03:25;26.35;;;14.70;;
38783;SDS011;24531;45.502;12.238;2023-11-19T08:05:50;23.33;;;14.25;;
38783;SDS011;24531;45.502;12.238;2023-11-19T08:08:16;21.83;;;14.73;;
38783;SDS011;24531;45.502;12.238;2023-11-19T08:10:42;22.25;;;13.73;;
38783;SDS011;24531;45.502;12.238;2023-11-19T08:13:09;19.77;;;13.50;;
38783;SDS011;24531;45.502;12.238;2023-11-19T08:15:36;19.00;;;13.15;;
38783;SDS011;24531;45.502;12.238;2023-11-19T08:18:01;21.83;;;13.73;;
38783;SDS011;24531;45.502;12.238;2023-11-19T08:20:27;21.35;;;14.45;;
38783;SDS011;24531;45.502;12.238;2023-11-19T08:22:53;23.27;;;14.00;;
38783;SDS011;24531;45.502;12.238;2023-11-19T08:25:18;20.92;;;13.75;;
38783;SDS011;24531;45.502;12.238;2023-11-19T08:27:44;19.83;;;13.60;;
38783;SDS011;24531;45.502;12.238;2023-11-19T08:30:10;19.23;;;12.80;;
38783;SDS011;24531;45.502;12.238;2023-11-19T08:32:36;22.42;;;13.32;;
38783;SDS011;24531;45.502;12.238;2023-11-19T08:35:02;17.58;;;12.30;;
38783;SDS011;24531;45.502;12.238;2023-11-19T08:37:28;19.33;;;13.52;;
38783;SDS011;24531;45.502;12.238;2023-11-19T08:39:53;18.65;;;12.25;;
38783;SDS011;24531;45.502;12.238;2023-11-19T08:42:19;16.65;;;12.68;;
38783;SDS011;24531;45.502;12.238;2023-11-19T08:44:49;17.45;;;12.25;;
38783;SDS011;24531;45.502;12.238;2023-11-19T08:47:15;18.67;;;12.23;;
38783;SDS011;24531;45.502;12.238;2023-11-19T08:49:43;17.05;;;12.77;;
38783;SDS011;24531;45.502;12.238;2023-11-19T08:52:09;19.05;;;12.38;;
38783;SDS011;24531;45.502;12.238;2023-11-19T08:54:35;19.15;;;12.65;;
38783;SDS011;24531;45.502;12.238;2023-11-19T08:57:01;18.33;;;12.00;;
38783;SDS011;24531;45.502;12.238;2023-11-19T08:59:28;19.90;;;11.50;;
38783;SDS011;24531;45.502;12.238;2023-11-19T09:01:54;14.27;;;10.50;;
38783;SDS011;24531;45.502;12.238;2023-11-19T09:04:20;15.60;;;11.55;;
38783;SDS011;24531;45.502;12.238;2023-11-19T09:06:48;16.02;;;11.07;;
38783;SDS011;24531;45.502;12.238;2023-11-19T09:09:14;18.00;;;10.98;;
38783;SDS011;24531;45.502;12.238;2023-11-19T09:11:39;16.15;;;10.93;;
38783;SDS011;24531;45.502;12.238;2023-11-19T09:14:05;13.55;;;9.70;;
38783;SDS011;24531;45.502;12.238;2023-11-19T09:16:31;15.70;;;10.55;;
38783;SDS011;24531;45.502;12.238;2023-11-19T09:18:57;13.63;;;10.02;;
38783;SDS011;24531;45.502;12.238;2023-11-19T09:21:24;13.82;;;9.32;;
38783;SDS011;24531;45.502;12.238;2023-11-19T09:23:50;13.38;;;9.13;;
38783;SDS011;24531;45.502;12.238;2023-11-19T09:26:16;11.93;;;8.95;;
38783;SDS011;24531;45.502;12.238;2023-11-19T09:28:41;13.25;;;8.85;;
38783;SDS011;24531;45.502;12.238;2023-11-19T09:31:13;13.82;;;8.60;;
38783;SDS011;24531;45.502;12.238;2023-11-19T09:33:42;11.63;;;8.02;;
38783;SDS011;24531;45.502;12.238;2023-11-19T09:36:09;10.50;;;8.02;;
38783;SDS011;24531;45.502;12.238;2023-11-19T09:38:38;10.02;;;7.38;;
38783;SDS011;24531;45.502;12.238;2023-11-19T09:41:05;10.27;;;7.47;;
38783;SDS011;24531;45.502;12.238;2023-11-19T09:43:34;11.02;;;7.53;;
38783;SDS011;24531;45.502;12.238;2023-11-19T09:46:03;9.88;;;6.43;;
38783;SDS011;24531;45.502;12.238;2023-11-19T09:48:35;8.02;;;5.90;;
38783;SDS011;24531;45.502;12.238;2023-11-19T09:51:02;9.57;;;5.45;;
38783;SDS011;24531;45.502;12.238;2023-11-19T09:53:29;7.63;;;5.55;;
38783;SDS011;24531;45.502;12.238;2023-11-19T09:55:56;10.77;;;6.65;;
38783;SDS011;24531;45.502;12.238;2023-11-19T09:58:22;9.35;;;6.32;;
38783;SDS011;24531;45.502;12.238;2023-11-19T10:00:48;7.20;;;5.55;;
38783;SDS011;24531;45.502;12.238;2023-11-19T10:03:15;7.38;;;5.47;;
38783;SDS011;24531;45.502;12.238;2023-11-19T10:05:41;9.88;;;6.47;;
38783;SDS011;24531;45.502;12.238;2023-11-19T10:08:06;9.90;;;5.90;;
38783;SDS011;24531;45.502;12.238;2023-11-19T10:10:33;8.13;;;5.68;;
38783;SDS011;24531;45.502;12.238;2023-11-19T10:12:59;11.00;;;6.60;;
38783;SDS011;24531;45.502;12.238;2023-11-19T10:15:25;9.82;;;6.82;;
38783;SDS011;24531;45.502;12.238;2023-11-19T10:17:57;11.30;;;7.22;;
38783;SDS011;24531;45.502;12.238;2023-11-19T10:20:23;10.43;;;6.13;;
38783;SDS011;24531;45.502;12.238;2023-11-19T10:22:52;10.25;;;6.93;;
38783;SDS011;24531;45.502;12.238;2023-11-19T10:25:27;91.30;;;12.25;;
38783;SDS011;24531;45.502;12.238;2023-11-19T10:27:54;9.48;;;6.63;;
38783;SDS011;24531;45.502;12.238;2023-11-19T10:30:24;12.07;;;6.50;;
38783;SDS011;24531;45.502;12.238;2023-11-19T10:33:07;7.70;;;6.25;;
38783;SDS011;24531;45.502;12.238;2023-11-19T10:35:51;10.75;;;6.75;;
38783;SDS011;24531;45.502;12.238;2023-11-19T10:38:18;8.50;;;5.70;;
38783;SDS011;24531;45.502;12.238;2023-11-19T10:40:44;8.80;;;5.68;;
38783;SDS011;24531;45.502;12.238;2023-11-19T10:43:09;9.27;;;6.07;;
38783;SDS011;24531;45.502;12.238;2023-11-19T10:45:35;8.70;;;6.07;;
38783;SDS011;24531;45.502;12.238;2023-11-19T10:48:03;11.00;;;6.18;;
38783;SDS011;24531;45.502;12.238;2023-11-19T10:50:33;6.93;;;5.25;;
38783;SDS011;24531;45.502;12.238;2023-11-19T10:52:59;8.38;;;6.15;;
38783;SDS011;24531;45.502;12.238;2023-11-19T10:55:26;15.30;;;6.60;;
38783;SDS011;24531;45.502;12.238;2023-11-19T10:57:56;10.48;;;6.63;;
38783;SDS011;24531;45.502;12.238;2023-11-19T11:00:26;8.38;;;5.65;;
38783;SDS011;24531;45.502;12.238;2023-11-19T11:03:00;10.82;;;6.43;;
38783;SDS011;24531;45.502;12.238;2023-11-19T11:05:27;9.07;;;6.78;;
38783;SDS011;24531;45.502;12.238;2023-11-19T11:07:57;9.30;;;6.97;;
38783;SDS011;24531;45.502;12.238;2023-11-19T11:10:25;11.90;;;6.75;;
38783;SDS011;24531;45.502;12.238;2023-11-19T11:12:52;12.18;;;7.88;;
38783;SDS011;24531;45.502;12.238;2023-11-19T11:15:24;11.48;;;6.72;;
38783;SDS011;24531;45.502;12.238;2023-11-19T11:17:54;10.57;;;6.68;;
38783;SDS011;24531;45.502;12.238;2023-11-19T11:20:24;9.20;;;6.82;;
38783;SDS011;24531;45.502;12.238;2023-11-19T11:25:54;15.15;;;7.55;;
38783;SDS011;24531;45.502;12.238;2023-11-19T11:29:26;9.15;;;5.68;;
38783;SDS011;24531;45.502;12.238;2023-11-19T11:31:44;8.75;;;5.75;;
38783;SDS011;24531;45.502;12.238;2023-11-19T11:39:39;12.98;;;6.95;;
38783;SDS011;24531;45.502;12.238;2023-11-19T11:50:11;9.02;;;6.65;;
38783;SDS011;24531;45.502;12.238;2023-11-19T11:55:27;14.05;;;7.13;;
38783;SDS011;24531;45.502;12.238;2023-11-19T11:57:54;12.00;;;7.63;;
38783;SDS011;24531;45.502;12.238;2023-11-19T12:02:52;13.15;;;8.35;;
38783;SDS011;24531;45.502;12.238;2023-11-19T12:05:26;12.02;;;8.38;;
38783;SDS011;24531;45.502;12.238;2023-11-19T12:08:03;12.55;;;8.25;;
38783;SDS011;24531;45.502;12.238;2023-11-19T12:10:32;10.73;;;7.63;;
38783;SDS011;24531;45.502;12.238;2023-11-19T12:13:17;13.20;;;8.98;;
38783;SDS011;24531;45.502;12.238;2023-11-19T12:18:28;11.73;;;8.65;;
38783;SDS011;24531;45.502;12.238;2023-11-19T12:20:55;14.98;;;9.15;;
38783;SDS011;24531;45.502;12.238;2023-11-19T12:23:22;15.43;;;10.30;;
38783;SDS011;24531;45.502;12.238;2023-11-19T12:25:48;15.77;;;10.10;;
38783;SDS011;24531;45.502;12.238;2023-11-19T12:28:14;17.80;;;10.05;;
38783;SDS011;24531;45.502;12.238;2023-11-19T12:30:44;16.77;;;9.75;;
38783;SDS011;24531;45.502;12.238;2023-11-19T12:33:11;18.88;;;10.93;;
38783;SDS011;24531;45.502;12.238;2023-11-19T12:35:40;14.77;;;10.05;;
38783;SDS011;24531;45.502;12.238;2023-11-19T12:38:07;13.48;;;9.43;;
38783;SDS011;24531;45.502;12.238;2023-11-19T12:40:33;14.73;;;10.48;;
38783;SDS011;24531;45.502;12.238;2023-11-19T12:42:59;16.13;;;10.02;;
38783;SDS011;24531;45.502;12.238;2023-11-19T12:45:33;16.83;;;10.88;;
38783;SDS011;24531;45.502;12.238;2023-11-19T12:48:07;16.95;;;10.10;;
38783;SDS011;24531;45.502;12.238;2023-11-19T12:50:50;14.15;;;9.57;;
38783;SDS011;24531;45.502;12.238;2023-11-19T12:55:43;13.10;;;8.35;;
38783;SDS011;24531;45.502;12.238;2023-11-19T12:58:09;15.13;;;9.90;;
38783;SDS011;24531;45.502;12.238;2023-11-19T13:00:34;13.02;;;9.50;;
38783;SDS011;24531;45.502;12.238;2023-11-19T13:03:00;17.20;;;9.98;;
38783;SDS011;24531;45.502;12.238;2023-11-19T13:10:28;15.30;;;10.07;;
38783;SDS011;24531;45.502;12.238;2023-11-19T13:13:06;15.82;;;11.00;;
38783;SDS011;24531;45.502;12.238;2023-11-19T13:15:33;18.95;;;11.32;;
38783;SDS011;24531;45.502;12.238;2023-11-19T13:18:00;20.95;;;11.02;;
38783;SDS011;24531;45.502;12.238;2023-11-19T13:20:26;22.15;;;10.82;;
38783;SDS011;24531;45.502;12.238;2023-11-19T13:22:59;13.75;;;10.32;;
38783;SDS011;24531;45.502;12.238;2023-11-19T13:25:26;16.50;;;10.38;;
38783;SDS011;24531;45.502;12.238;2023-11-19T13:27:53;17.48;;;10.25;;
38783;SDS011;24531;45.502;12.238;2023-11-19T13:30:19;15.02;;;9.63;;
38783;SDS011;24531;45.502;12.238;2023-11-19T13:32:45;14.60;;;10.15;;
38783;SDS011;24531;45.502;12.238;2023-11-19T13:35:12;15.25;;;10.18;;
38783;SDS011;24531;45.502;12.238;2023-11-19T13:37:38;14.63;;;9.80;;
38783;SDS011;24531;45.502;12.238;2023-11-19T13:40:05;16.98;;;11.25;;
38783;SDS011;24531;45.502;12.238;2023-11-19T13:42:37;17.02;;;11.15;;
38783;SDS011;24531;45.502;12.238;2023-11-19T13:45:07;16.40;;;11.57;;
38783;SDS011;24531;45.502;12.238;2023-11-19T13:47:36;17.00;;;10.95;;
38783;SDS011;24531;45.502;12.238;2023-11-19T13:50:06;16.27;;;11.05;;
38783;SDS011;24531;45.502;12.238;2023-11-19T13:52:39;17.02;;;10.45;;
38783;SDS011;24531;45.502;12.238;2023-11-19T13:55:07;16.92;;;11.23;;
38783;SDS011;24531;45.502;12.238;2023-11-19T13:57:36;16.83;;;10.73;;
38783;SDS011;24531;45.502;12.238;2023-11-19T14:00:03;14.95;;;10.57;;
38783;SDS011;24531;45.502;12.238;2023-11-19T14:02:38;20.55;;;11.38;;
38783;SDS011;24531;45.502;12.238;2023-11-19T14:05:07;19.05;;;12.18;;
38783;SDS011;24531;45.502;12.238;2023-11-19T14:07:34;16.85;;;11.18;;
38783;SDS011;24531;45.502;12.238;2023-11-19T14:09:59;16.52;;;11.45;;
38783;SDS011;24531;45.502;12.238;2023-11-19T14:12:25;17.27;;;11.15;;
38783;SDS011;24531;45.502;12.238;2023-11-19T14:14:51;17.45;;;10.82;;
38783;SDS011;24531;45.502;12.238;2023-11-19T14:17:17;18.92;;;11.05;;
38783;SDS011;24531;45.502;12.238;2023-11-19T14:19:43;18.15;;;11.70;;
38783;SDS011;24531;45.502;12.238;2023-11-19T14:22:09;17.88;;;12.18;;
38783;SDS011;24531;45.502;12.238;2023-11-19T14:24:35;18.95;;;12.80;;
38783;SDS011;24531;45.502;12.238;2023-11-19T14:27:01;17.23;;;11.70;;
38783;SDS011;24531;45.502;12.238;2023-11-19T14:29:27;17.23;;;11.35;;
38783;SDS011;24531;45.502;12.238;2023-11-19T14:31:56;18.13;;;11.57;;
38783;SDS011;24531;45.502;12.238;2023-11-19T14:34:22;14.07;;;9.35;;
38783;SDS011;24531;45.502;12.238;2023-11-19T14:36:48;14.20;;;9.55;;
38783;SDS011;24531;45.502;12.238;2023-11-19T14:39:14;14.10;;;8.75;;
38783;SDS011;24531;45.502;12.238;2023-11-19T14:41:40;14.35;;;9.93;;
38783;SDS011;24531;45.502;12.238;2023-11-19T14:44:07;14.55;;;10.25;;
38783;SDS011;24531;45.502;12.238;2023-11-19T14:46:34;19.13;;;9.65;;